Aviation Digital Data Service (ADDS)

Output produced by TAFs form (1739 UTC 21 April 2018)
found at http://aviationweather.gov/adds/tafs/
 
RJNT 211200Z VRB02KT CAVOK 18/10 Q1019
TAF RJNT 211705Z 2118/2300 18004KT 9999 FEW030 
     BECMG 2201/2203 29006KT 
     BECMG 2209/2212 18004KT 
     TEMPO 2215/2221 4000 BR